Sikinos, Greece
Current Conditions -  °F | °C
As of 12:20 AM on Saturday 25 Oct 2014 (Local Time) from LGSR Reporting Station
Light Rain Light Rain  
Wind Chill: 64°   Ceiling: NA
Heat Index: 64°   Visibility: NA
Dew Point: 57°   Wind: 14mph
Humidity: 77%   Direction: 220°SW
Pressure: 29.77"   Gusts: NA
Location:  36.69°N, 25.11°E
Report Text: LGSR 242120Z AUTO 22012KT //// -RA ////// 18/14 Q1008 RE//
Loading
Personal Weather Stations






























Interactive Weather Map
Tropical Storm Tracking
New forecast layout! Learn more

10-Day Weather Forecast

Advertisements
Track Severe Weather on mobile